Due to severe server failure at the provider, not all demo sites are operational. Will take some days to rebuilt everything.

Demonstration site - Click on the  for more information

This is an optional block. Switch it on/off in your settings-file: $SITE['bannerTop'] = false; or $SITE['bannerBottom'] = false;

You can display ads, any other important text or photo’s using text / html or PHP code.

You can place one or more at the top and or bottom and it can all be different for content / size .



Visit our other weather sites:

Template documentation
and downloads

And another site



Nearby METAR Reports

   
EBAW - Antwerp
Updated: 24-08-2019 14:20
Clear  
Clear  
   Wind: ESE 14.8 km/h
Wind: ESE 14.8 km/h
Temperature: 29°C
Dew Point: 10°C
Humidity: 31%
Barometer: 1020 hPa
Visibility: More than 10 km
Cloud details: Clear ft
EBAW 241220Z 12008KT 090V160 CAVOK 29/10 Q1020 NOSIG
EBLG - Liège
Updated: 24-08-2019 14:20
Clear  
Clear  
   Wind: SE 11.1 km/h
Wind: SE 11.1 km/h
Temperature: 28°C
Dew Point: 12°C
Humidity: 37%
Barometer: 1020 hPa
Visibility: More than 10 km
Cloud details: Clear ft
EBLG 241220Z 14006KT 100V200 CAVOK 28/12 Q1020 NOSIG
EBCV - Mons/Bergen
Updated: 24-08-2019 13:55
Clear  
Clear  
   Wind: ESE 7.4 km/h
Wind: ESE 7.4 km/h
Temperature: 29°C
Dew Point: 9°C
Humidity: 29%
Barometer: 1020 hPa
Clouds: Clear
Visibility: More than 10 km
Cloud details: Clear ft
EBCV 241155Z AUTO 11004KT 9999 NCD 29/09 Q1020 BLU
EHBK - Maastricht
Updated: 24-08-2019 13:55
Clear  
Clear  
   Wind: East 16.7 km/h
Wind: East 16.7 km/h
Temperature: 29°C
Dew Point: 13°C
Humidity: 37%
Barometer: 1020 hPa
Clouds: Clear
Visibility: More than 10 km
Cloud details: Clear ft
EHBK 241155Z AUTO 08009KT 040V120 9999 NCD 29/13 Q1020 NOSIG
ELLX - Luxemburg
Updated: 24-08-2019 14:20
Clear  
Clear  
   Wind: East 11.1 km/h
Wind: East 11.1 km/h
Temperature: 27°C
Heat Index: 27°C
Dew Point: 13°C
Humidity: 42%
Barometer: 1021 hPa
Visibility: More than 10 km
Cloud details: Clear ft
ELLX 241220Z 09006KT 010V180 CAVOK 27/13 Q1021 NOSIG
EBOS - Oostende
Updated: 24-08-2019 14:20
Clear  
Clear  
   Wind: North 16.7 km/h
Wind: North 16.7 km/h
Temperature: 26°C
Dew Point: 15°C
Humidity: 51%
Barometer: 1020 hPa
Visibility: More than 10 km
Cloud details: Clear ft
EBOS 241220Z 01009KT CAVOK 26/15 Q1020 NOSIG

Script developed by  Saratoga-weather.org Adapted for the template by  Weerstation Leuven

This is an optional block. Switch it on/off in your settings-file: $SITE['bannerTop'] = false; or $SITE['bannerBottom'] = false;

You can display ads, any other important text or photo’s using text / html or PHP code.

You can place one or more at the top and or bottom and it can all be different for content / size .